Time;durP1;ratioP1;P1;durP2;ratioP2;P2;SDS_P1;SDS_P2;PMS_P1;PMS_P2;Temp;Humidity;BMP_temperature;BMP_pressure;BME280_temperature;BME280_humidity;BME280_pressure;Samples;Min_cycle;Max_cycle;Signal;HPM_P1;HPM_P2
2022/11/20 00:02:01;;;;;;;;;;;;;;;;;;5052412;28;1989;-74
2022/11/20 00:04:27;;;;;;;;;;;;;;;;;;5053635;28;1391;-73
2022/11/20 00:06:53;;;;;;;;;;;;;;;;;;5054241;28;1123;-74
2022/11/20 00:09:20;;;;;;;;;;;;;;;;;;5054318;28;937;-74
2022/11/20 00:11:48;;;;;;;;;;;;;;;;;;5053398;28;1052;-74
2022/11/20 00:14:14;;;;;;;;;;;;;;;;;;5054248;28;779;-74
2022/11/20 00:16:40;;;;;;;;;;;;;;;;;;5053778;28;1415;-74
2022/11/20 00:19:06;;;;;;;;;;;;;;;;;;5053703;28;1087;-74
2022/11/20 00:21:32;;;;;;;;;;;;;;;;;;5052896;28;880;-74
2022/11/20 00:23:59;;;;;;;;;;;;;;;;;;5051985;28;1972;-74
2022/11/20 00:26:26;;;;;;;;;;;;;;;;;;5052058;28;1280;-74
2022/11/20 00:28:54;;;;;;;;;;;;;;;;;;5050727;28;909;-74
2022/11/20 00:31:20;;;;;;;;;;;;;;;;;;5053233;28;1131;-73
2022/11/20 00:33:47;;;;;;;;;;;;;;;;;;5053715;28;937;-74
2022/11/20 00:36:14;;;;;;;;;;;;;;;;;;5053833;28;1328;-74
2022/11/20 00:38:40;;;;;;;;;;;;;;;;;;5053740;28;1060;-73
2022/11/20 00:41:07;;;;;;;;;;;;;;;;;;5053432;28;1035;-74
2022/11/20 00:43:34;;;;;;;;;;;;;;;;;;5052093;28;1918;-73
2022/11/20 00:46:01;;;;;;;;;;;;;;;;;;5053442;28;1388;-73
2022/11/20 00:48:28;;;;;;;;;;;;;;;;;;5051983;28;875;-74
2022/11/20 00:50:54;;;;;;;;;;;;;;;;;;5049247;28;874;-74
2022/11/20 00:53:21;;;;;;;;;;;;;;;;;;5045923;28;1226;-74
2022/11/20 00:55:53;;;;;;;;;;;;;;;;;;5047580;28;1337;-74
2022/11/20 00:58:19;;;;;;;;;;;;;;;;;;5049075;28;969;-74
2022/11/20 01:00:45;;;;;;;;;;;;;;;;;;5052957;28;1118;-73
2022/11/20 01:03:13;;;;;;;;;;;;;;;;;;5052408;28;1973;-73
2022/11/20 01:05:39;;;;;;;;;;;;;;;;;;5053113;28;1260;-73
2022/11/20 01:08:05;;;;;;;;;;;;;;;;;;5053107;28;972;-74
2022/11/20 01:10:31;;;;;;;;;;;;;;;;;;5053038;28;1160;-74
2022/11/20 01:15:38;;;;;;;;;;;;;;;;;;5052170;28;1278;-72
2022/11/20 01:18:05;;;;;;;;;;;;;;;;;;5051875;28;1140;-74
2022/11/20 01:20:32;;;;;;;;;;;;;;;;;;5052998;28;929;-73
2022/11/20 01:22:58;;;;;;;;;;;;;;;;;;5052035;28;1891;-74
2022/11/20 01:25:24;;;;;;;;;;;;;;;;;;5052898;28;1355;-74
2022/11/20 01:27:51;;;;;;;;;;;;;;;;;;5052738;28;921;-74
2022/11/20 01:30:17;;;;;;;;;;;;;;;;;;5052371;28;1072;-74
2022/11/20 01:32:43;;;;;;;;;;;;;;;;;;5050393;28;1669;-74
2022/11/20 01:35:10;;;;;;;;;;;;;;;;;;5052510;28;1300;-74
2022/11/20 01:37:37;;;;;;;;;;;;;;;;;;5052467;28;783;-74
2022/11/20 01:40:04;;;;;;;;;;;;;;;;;;5052507;28;1119;-74
2022/11/20 01:45:33;;;;;;;;;;;;;;;;;;5052268;28;1379;-74
2022/11/20 01:47:59;;;;;;;;;;;;;;;;;;5051820;28;805;-74
2022/11/20 01:50:26;;;;;;;;;;;;;;;;;;5049824;28;1115;-74
2022/11/20 01:52:54;;;;;;;;;;;;;;;;;;5047490;28;1131;-74
2022/11/20 01:55:22;;;;;;;;;;;;;;;;;;5046040;28;1296;-73
2022/11/20 01:57:48;;;;;;;;;;;;;;;;;;5050469;28;1084;-74
2022/11/20 02:00:15;;;;;;;;;;;;;;;;;;5052299;28;992;-74
2022/11/20 02:02:44;;;;;;;;;;;;;;;;;;5051913;28;1962;-74
2022/11/20 02:05:13;;;;;;;;;;;;;;;;;;5054655;28;1266;-74
2022/11/20 02:07:39;;;;;;;;;;;;;;;;;;5036856;28;985;-74
2022/11/20 02:10:07;;;;;;;;;;;;;;;;;;5035115;28;1197;-74
2022/11/20 02:15:17;;;;;;;;;;;;;;;;;;5052804;28;1408;-74
2022/11/20 02:17:43;;;;;;;;;;;;;;;;;;5052083;28;1106;-74
2022/11/20 02:20:10;;;;;;;;;;;;;;;;;;5051900;28;854;-74
2022/11/20 02:22:36;;;;;;;;;;;;;;;;;;5051266;28;1052;-74
2022/11/20 02:25:04;;;;;;;;;;;;;;;;;;5051311;28;1914;-74
2022/11/20 02:27:30;;;;;;;;;;;;;;;;;;5051986;28;1003;-74
2022/11/20 02:29:57;;;;;;;;;;;;;;;;;;5050329;28;1140;-73
2022/11/20 02:32:24;;;;;;;;;;;;;;;;;;5050930;28;925;-74
2022/11/20 02:34:51;;;;;;;;;;;;;;;;;;5051646;28;1362;-73
2022/11/20 02:37:17;;;;;;;;;;;;;;;;;;5051869;28;1064;-73
2022/11/20 02:39:43;;;;;;;;;;;;;;;;;;5051760;28;838;-74
2022/11/20 02:42:11;;;;;;;;;;;;;;;;;;5049263;28;1247;-74
2022/11/20 02:44:37;;;;;;;;;;;;;;;;;;5050789;28;2256;-74
2022/11/20 02:47:03;;;;;;;;;;;;;;;;;;5050354;28;1055;-74
2022/11/20 02:49:29;;;;;;;;;;;;;;;;;;5051918;28;1073;-74
2022/11/20 02:51:56;;;;;;;;;;;;;;;;;;5049742;28;1152;-73
2022/11/20 02:54:22;;;;;;;;;;;;;;;;;;5051586;28;1372;-73
2022/11/20 02:56:48;;;;;;;;;;;;;;;;;;5052101;28;988;-74
2022/11/20 02:59:16;;;;;;;;;;;;;;;;;;5050466;28;1147;-74
2022/11/20 03:01:42;;;;;;;;;;;;;;;;;;5049806;28;1119;-73
2022/11/20 03:04:08;;;;;;;;;;;;;;;;;;5051835;28;1977;-75
2022/11/20 03:06:35;;;;;;;;;;;;;;;;;;5051588;28;1280;-73
2022/11/20 03:09:01;;;;;;;;;;;;;;;;;;5054378;28;1167;-74
2022/11/20 03:11:27;;;;;;;;;;;;;;;;;;5053605;28;1176;-74
2022/11/20 03:13:53;;;;;;;;;;;;;;;;;;5055592;28;857;-74
2022/11/20 03:16:21;;;;;;;;;;;;;;;;;;5055236;28;1282;-74
2022/11/20 03:18:47;;;;;;;;;;;;;;;;;;5053484;28;1085;-74
2022/11/20 03:21:14;;;;;;;;;;;;;;;;;;5053842;28;1114;-73
2022/11/20 03:23:40;;;;;;;;;;;;;;;;;;5054761;28;1906;-74
2022/11/20 03:26:11;;;;;;;;;;;;;;;;;;5055143;28;1253;-74
2022/11/20 03:28:37;;;;;;;;;;;;;;;;;;5053973;28;1127;-74
2022/11/20 03:31:10;;;;;;;;;;;;;;;;;;5051441;28;1533;-75
2022/11/20 03:33:38;;;;;;;;;;;;;;;;;;5053051;28;1056;-74
2022/11/20 03:36:05;;;;;;;;;;;;;;;;;;5054546;28;1385;-74
2022/11/20 03:38:31;;;;;;;;;;;;;;;;;;5054804;28;1048;-74
2022/11/20 03:41:01;;;;;;;;;;;;;;;;;;5053323;28;1116;-73
2022/11/20 03:43:27;;;;;;;;;;;;;;;;;;5053290;28;1906;-72
2022/11/20 03:45:54;;;;;;;;;;;;;;;;;;5053948;28;1265;-74
2022/11/20 03:48:20;;;;;;;;;;;;;;;;;;5051848;28;1039;-74
2022/11/20 03:50:48;;;;;;;;;;;;;;;;;;5054477;28;877;-74
2022/11/20 03:53:14;;;;;;;;;;;;;;;;;;5048705;28;1757;-73
2022/11/20 03:55:40;;;;;;;;;;;;;;;;;;5053677;28;1396;-73
2022/11/20 03:58:06;;;;;;;;;;;;;;;;;;5053470;28;1220;-73
2022/11/20 04:00:33;;;;;;;;;;;;;;;;;;5050398;28;1198;-73
2022/11/20 04:02:59;;;;;;;;;;;;;;;;;;5048744;28;732;-73
2022/11/20 04:05:25;;;;;;;;;;;;;;;;;;5051719;28;2027;-73
2022/11/20 04:07:53;;;;;;;;;;;;;;;;;;5048804;28;1301;-73
2022/11/20 04:10:19;;;;;;;;;;;;;;;;;;5051790;28;1008;-73
2022/11/20 04:12:46;;;;;;;;;;;;;;;;;;5050378;28;1252;-73
2022/11/20 04:15:12;;;;;;;;;;;;;;;;;;5049153;28;1295;-73
2022/11/20 04:17:38;;;;;;;;;;;;;;;;;;5047463;28;833;-73
2022/11/20 04:20:05;;;;;;;;;;;;;;;;;;5050585;28;1131;-73
2022/11/20 04:22:31;;;;;;;;;;;;;;;;;;5053073;28;1036;-73
2022/11/20 04:24:59;;;;;;;;;;;;;;;;;;5050859;28;1914;-73
2022/11/20 04:27:25;;;;;;;;;;;;;;;;;;5048710;28;786;-73
2022/11/20 04:29:51;;;;;;;;;;;;;;;;;;5048803;28;1063;-73
2022/11/20 04:32:17;;;;;;;;;;;;;;;;;;5047887;28;1001;-73
2022/11/20 04:34:43;;;;;;;;;;;;;;;;;;5048442;28;1422;-73
2022/11/20 04:37:10;;;;;;;;;;;;;;;;;;5076087;22;3570;-81
2022/11/20 04:39:36;;;;;;;;;;;;;;;;;;5085894;28;1219;-81
2022/11/20 04:44:47;;;;;;;;;;;;;;;;;;5088100;28;1895;-81
2022/11/20 04:47:14;;;;;;;;;;;;;;;;;;5091100;28;1318;-81
2022/11/20 04:49:40;;;;;;;;;;;;;;;;;;5092068;28;1070;-82
2022/11/20 04:52:06;;;;;;;;;;;;;;;;;;5090651;28;738;-80
2022/11/20 04:54:32;;;;;;;;;;;;;;;;;;5083820;28;1153;-80
2022/11/20 04:56:59;;;;;;;;;;;;;;;;;;5071191;28;1297;-80
2022/11/20 04:59:26;;;;;;;;;;;;;;;;;;5068676;28;1222;-80
2022/11/20 05:01:53;;;;;;;;;;;;;;;;;;5062658;28;1875;-79
2022/11/20 05:04:19;;;;;;;;;;;;;;;;;;5080683;28;1949;-80
2022/11/20 05:06:46;;;;;;;;;;;;;;;;;;5068332;28;1294;-79
2022/11/20 05:09:12;;;;;;;;;;;;;;;;;;5069731;28;1103;-80
2022/11/20 05:11:38;;;;;;;;;;;;;;;;;;5069391;28;1110;-81
2022/11/20 05:14:04;;;;;;;;;;;;;;;;;;5069974;28;973;-80
2022/11/20 05:16:32;;;;;;;;;;;;;;;;;;5068854;28;1249;-81
2022/11/20 05:18:58;;;;;;;;;;;;;;;;;;5068352;28;1327;-81
2022/11/20 05:21:24;;;;;;;;;;;;;;;;;;5066445;28;1155;-81
2022/11/20 05:23:50;;;;;;;;;;;;;;;;;;5067919;28;1883;-82
2022/11/20 05:26:17;;;;;;;;;;;;;;;;;;5065576;28;1406;-81
2022/11/20 05:28:43;;;;;;;;;;;;;;;;;;5070120;28;918;-80
2022/11/20 05:31:10;;;;;;;;;;;;;;;;;;5076501;28;1213;-80
2022/11/20 05:33:40;;;;;;;;;;;;;;;;;;5086960;28;1051;-80
2022/11/20 05:36:07;;;;;;;;;;;;;;;;;;5087670;28;1439;-80
2022/11/20 05:38:33;;;;;;;;;;;;;;;;;;5089640;28;1055;-81
2022/11/20 05:41:06;;;;;;;;;;;;;;;;;;5088233;28;925;-81
2022/11/20 05:43:32;;;;;;;;;;;;;;;;;;5087204;28;952;-81
2022/11/20 05:45:58;;;;;;;;;;;;;;;;;;5088440;28;1981;-80
2022/11/20 05:48:25;;;;;;;;;;;;;;;;;;5087576;28;1096;-80
2022/11/20 05:50:52;;;;;;;;;;;;;;;;;;5088810;28;1142;-80
2022/11/20 05:53:18;;;;;;;;;;;;;;;;;;5087514;28;846;-81
2022/11/20 05:55:44;;;;;;;;;;;;;;;;;;5086957;28;1450;-81
2022/11/20 05:58:11;;;;;;;;;;;;;;;;;;5068517;28;1528;-80
2022/11/20 06:00:37;;;;;;;;;;;;;;;;;;5068695;28;1155;-81
2022/11/20 06:03:03;;;;;;;;;;;;;;;;;;5065966;28;1472;-81
2022/11/20 06:05:30;;;;;;;;;;;;;;;;;;5069297;28;1891;-81
2022/11/20 06:07:57;;;;;;;;;;;;;;;;;;5035246;28;1402;-80
2022/11/20 06:10:24;;;;;;;;;;;;;;;;;;4995159;28;1446;-80
2022/11/20 06:12:50;;;;;;;;;;;;;;;;;;5000881;28;1369;-80
2022/11/20 06:15:17;;;;;;;;;;;;;;;;;;4987815;28;771;-74
2022/11/20 06:17:43;;;;;;;;;;;;;;;;;;5003560;28;1329;-74
2022/11/20 06:20:10;;;;;;;;;;;;;;;;;;5025251;28;1323;-74
2022/11/20 06:22:36;;;;;;;;;;;;;;;;;;4986304;28;1561;-74
2022/11/20 06:25:04;;;;;;;;;;;;;;;;;;4983993;28;2174;-74
2022/11/20 06:27:31;;;;;;;;;;;;;;;;;;4984510;28;1404;-74
2022/11/20 06:29:57;;;;;;;;;;;;;;;;;;4984516;28;877;-74
2022/11/20 06:32:24;;;;;;;;;;;;;;;;;;4973905;28;965;-74
2022/11/20 06:34:50;;;;;;;;;;;;;;;;;;5005246;28;826;-74
2022/11/20 06:37:17;;;;;;;;;;;;;;;;;;4986966;28;1309;-74
2022/11/20 06:39:43;;;;;;;;;;;;;;;;;;4980780;28;1553;-74
2022/11/20 06:42:11;;;;;;;;;;;;;;;;;;4984349;28;1088;-74
2022/11/20 06:44:38;;;;;;;;;;;;;;;;;;4987352;28;2080;-74
2022/11/20 06:47:04;;;;;;;;;;;;;;;;;;5029549;28;1420;-74
2022/11/20 06:49:30;;;;;;;;;;;;;;;;;;5047069;28;1032;-74
2022/11/20 06:51:56;;;;;;;;;;;;;;;;;;5048226;28;1470;-75
2022/11/20 06:54:22;;;;;;;;;;;;;;;;;;5051276;28;1434;-75
2022/11/20 06:56:49;;;;;;;;;;;;;;;;;;5054150;28;1486;-75
2022/11/20 06:59:16;;;;;;;;;;;;;;;;;;5053962;28;802;-75
2022/11/20 07:01:42;;;;;;;;;;;;;;;;;;5051322;28;790;-75
2022/11/20 07:04:09;;;;;;;;;;;;;;;;;;5048966;28;1977;-75
2022/11/20 07:06:35;;;;;;;;;;;;;;;;;;5050257;28;1482;-75
2022/11/20 07:09:01;;;;;;;;;;;;;;;;;;5051632;28;1127;-76
2022/11/20 07:11:27;;;;;;;;;;;;;;;;;;5052863;28;1052;-75
2022/11/20 07:13:54;;;;;;;;;;;;;;;;;;5030324;28;1553;-74
2022/11/20 07:16:22;;;;;;;;;;;;;;;;;;4985721;28;1384;-75
2022/11/20 07:18:48;;;;;;;;;;;;;;;;;;4985592;28;882;-75
2022/11/20 07:21:15;;;;;;;;;;;;;;;;;;4990036;28;731;-75
2022/11/20 07:23:41;;;;;;;;;;;;;;;;;;4982761;28;1385;-75
2022/11/20 07:26:08;;;;;;;;;;;;;;;;;;4973385;28;1937;-75
2022/11/20 07:28:35;;;;;;;;;;;;;;;;;;4984843;28;916;-74
2022/11/20 07:31:01;;;;;;;;;;;;;;;;;;4990249;28;857;-75
2022/11/20 07:33:30;;;;;;;;;;;;;;;;;;4988019;28;873;-74
2022/11/20 07:35:56;;;;;;;;;;;;;;;;;;4985330;28;1321;-75
2022/11/20 07:38:23;;;;;;;;;;;;;;;;;;4990141;28;889;-75
2022/11/20 07:40:49;;;;;;;;;;;;;;;;;;4987671;28;1567;-75
2022/11/20 07:43:16;;;;;;;;;;;;;;;;;;4973968;28;1567;-75
2022/11/20 07:45:43;;;;;;;;;;;;;;;;;;4980200;28;2021;-75
2022/11/20 07:48:09;;;;;;;;;;;;;;;;;;4982298;28;1115;-75
2022/11/20 07:50:37;;;;;;;;;;;;;;;;;;4983845;28;1348;-75
2022/11/20 07:53:04;;;;;;;;;;;;;;;;;;4979984;28;2311;-75
2022/11/20 07:55:30;;;;;;;;;;;;;;;;;;4982292;28;1452;-75
2022/11/20 07:57:57;;;;;;;;;;;;;;;;;;4988727;28;905;-75
2022/11/20 08:00:24;;;;;;;;;;;;;;;;;;4980167;28;1000;-75
2022/11/20 08:02:50;;;;;;;;;;;;;;;;;;4987764;28;957;-75
2022/11/20 08:05:17;;;;;;;;;;;;;;;;;;4990718;28;1950;-74
2022/11/20 08:07:45;;;;;;;;;;;;;;;;;;4989396;28;1278;-74
2022/11/20 08:10:12;;;;;;;;;;;;;;;;;;4980251;28;1434;-74
2022/11/20 08:15:28;;;;;;;;;;;;;;;;;;4989886;28;1321;-76
2022/11/20 08:17:59;;;;;;;;;;;;;;;;;;4990179;28;1233;-80
2022/11/20 08:20:26;;;;;;;;;;;;;;;;;;4991908;28;1525;-80
2022/11/20 08:22:54;;;;;;;;;;;;;;;;;;4989487;28;1103;-79
2022/11/20 08:25:20;;;;;;;;;;;;;;;;;;4987431;28;1934;-79
2022/11/20 08:27:47;;;;;;;;;;;;;;;;;;4987897;28;1608;-79
2022/11/20 08:30:14;;;;;;;;;;;;;;;;;;4990097;28;1521;-79
2022/11/20 08:32:40;;;;;;;;;;;;;;;;;;4994619;28;932;-81
2022/11/20 08:35:07;;;;;;;;;;;;;;;;;;5010454;28;1112;-82
2022/11/20 08:37:34;;;;;;;;;;;;;;;;;;5007119;28;1382;-81
2022/11/20 08:40:01;;;;;;;;;;;;;;;;;;5002675;28;1173;-81
2022/11/20 08:42:28;;;;;;;;;;;;;;;;;;5003751;28;1091;-81
2022/11/20 08:44:54;;;;;;;;;;;;;;;;;;5038844;28;1944;-81
2022/11/20 08:47:20;;;;;;;;;;;;;;;;;;5066016;28;1929;-80
2022/11/20 08:49:47;;;;;;;;;;;;;;;;;;5058860;28;1634;-80
2022/11/20 08:52:13;;;;;;;;;;;;;;;;;;5058875;28;1393;-80
2022/11/20 08:54:39;;;;;;;;;;;;;;;;;;5056676;28;1433;-79
2022/11/20 08:57:07;;;;;;;;;;;;;;;;;;5058753;28;1502;-79
2022/11/20 08:59:33;;;;;;;;;;;;;;;;;;5057274;28;1290;-79
2022/11/20 09:01:59;;;;;;;;;;;;;;;;;;5055139;28;1398;-79
2022/11/20 09:04:25;;;;;;;;;;;;;;;;;;5061298;28;1153;-80
2022/11/20 09:06:51;;;;;;;;;;;;;;;;;;5056141;28;1914;-80
2022/11/20 09:09:18;;;;;;;;;;;;;;;;;;5061199;28;1370;-79
2022/11/20 09:11:44;;;;;;;;;;;;;;;;;;5060715;28;1189;-80
2022/11/20 09:14:12;;;;;;;;;;;;;;;;;;5057493;28;1072;-80
2022/11/20 09:16:38;;;;;;;;;;;;;;;;;;5056169;28;1371;-81
2022/11/20 09:19:04;;;;;;;;;;;;;;;;;;5057466;28;1325;-80
2022/11/20 09:21:30;;;;;;;;;;;;;;;;;;5052696;28;1399;-80
2022/11/20 09:23:56;;;;;;;;;;;;;;;;;;5057340;28;1137;-81
2022/11/20 09:26:23;;;;;;;;;;;;;;;;;;5056269;28;1942;-80
2022/11/20 09:28:49;;;;;;;;;;;;;;;;;;5054983;28;1199;-81
2022/11/20 09:31:18;;;;;;;;;;;;;;;;;;5056216;28;1079;-80
2022/11/20 09:33:44;;;;;;;;;;;;;;;;;;5057273;28;1056;-81
2022/11/20 09:36:11;;;;;;;;;;;;;;;;;;5055847;28;1486;-81
2022/11/20 09:38:37;;;;;;;;;;;;;;;;;;5058741;28;1279;-80
2022/11/20 09:41:04;;;;;;;;;;;;;;;;;;5060629;28;1266;-79
2022/11/20 09:43:33;;;;;;;;;;;;;;;;;;5056584;28;1379;-80
2022/11/20 09:46:03;;;;;;;;;;;;;;;;;;5058876;28;1965;-80
2022/11/20 09:48:43;;;;;;;;;;;;;;;;;;5055230;28;1495;-79
2022/11/20 09:51:12;;;;;;;;;;;;;;;;;;5058541;28;1302;-79
2022/11/20 09:53:41;;;;;;;;;;;;;;;;;;5058261;28;1207;-79
2022/11/20 09:56:07;;;;;;;;;;;;;;;;;;5057502;28;1345;-79
2022/11/20 09:58:35;;;;;;;;;;;;;;;;;;5058399;28;1286;-79
2022/11/20 10:01:04;;;;;;;;;;;;;;;;;;5059632;28;1251;-78
2022/11/20 10:03:33;;;;;;;;;;;;;;;;;;5060568;28;1243;-79
2022/11/20 10:06:01;;;;;;;;;;;;;;;;;;5059408;28;2008;-79
2022/11/20 10:08:30;;;;;;;;;;;;;;;;;;5061403;28;1180;-79
2022/11/20 10:10:57;;;;;;;;;;;;;;;;;;5058864;28;1172;-80
2022/11/20 10:13:28;;;;;;;;;;;;;;;;;;5059888;28;996;-79
2022/11/20 10:15:57;;;;;;;;;;;;;;;;;;5059647;28;1358;-80
2022/11/20 10:18:26;;;;;;;;;;;;;;;;;;5060623;28;1095;-79
2022/11/20 10:20:54;;;;;;;;;;;;;;;;;;5061239;28;1055;-79
2022/11/20 10:23:27;;;;;;;;;;;;;;;;;;5058831;28;1231;-79
2022/11/20 10:25:55;;;;;;;;;;;;;;;;;;5060105;28;1946;-79
2022/11/20 10:28:24;;;;;;;;;;;;;;;;;;5058863;28;1154;-78
2022/11/20 10:30:56;;;;;;;;;;;;;;;;;;5059645;28;1122;-79
2022/11/20 10:33:23;;;;;;;;;;;;;;;;;;5058478;28;1428;-80
2022/11/20 10:35:50;;;;;;;;;;;;;;;;;;5062965;28;1379;-79
2022/11/20 10:38:17;;;;;;;;;;;;;;;;;;5063792;28;1134;-80
2022/11/20 10:40:46;;;;;;;;;;;;;;;;;;5064951;28;1567;-78
2022/11/20 10:43:13;;;;;;;;;;;;;;;;;;5066886;28;1135;-79
2022/11/20 10:45:48;;;;;;;;;;;;;;;;;;5062179;28;1918;-82
2022/11/20 10:48:18;;;;;;;;;;;;;;;;;;5087136;22;3503;-78
2022/11/20 10:50:47;;;;;;;;;;;;;;;;;;5094435;28;1301;-78
2022/11/20 10:53:15;;;;;;;;;;;;;;;;;;5111449;28;1172;-78
2022/11/20 10:55:43;;;;;;;;;;;;;;;;;;5096754;28;841;-78
2022/11/20 10:58:11;;;;;;;;;;;;;;;;;;5094345;28;1471;-78
2022/11/20 11:00:38;;;;;;;;;;;;;;;;;;5096011;28;1111;-78
2022/11/20 11:03:08;;;;;;;;;;;;;;;;;;5095069;28;1066;-79
2022/11/20 11:05:35;;;;;;;;;;;;;;;;;;5095262;28;1914;-78
2022/11/20 11:08:02;;;;;;;;;;;;;;;;;;5085712;28;1424;-78
2022/11/20 11:10:29;;;;;;;;;;;;;;;;;;5060675;28;1328;-78
2022/11/20 11:12:56;;;;;;;;;;;;;;;;;;5060264;28;1298;-77
2022/11/20 11:15:27;;;;;;;;;;;;;;;;;;5072455;28;1193;-76
2022/11/20 11:17:54;;;;;;;;;;;;;;;;;;5070782;28;1376;-78
2022/11/20 11:20:20;;;;;;;;;;;;;;;;;;5070888;28;1378;-78
2022/11/20 11:22:47;;;;;;;;;;;;;;;;;;5073057;28;1325;-78
2022/11/20 11:25:20;;;;;;;;;;;;;;;;;;5073587;28;1340;-78
2022/11/20 11:27:47;;;;;;;;;;;;;;;;;;5052205;28;1981;-77
2022/11/20 11:30:14;;;;;;;;;;;;;;;;;;5004180;28;1075;-78
2022/11/20 11:32:42;;;;;;;;;;;;;;;;;;5008426;28;1334;-77
2022/11/20 11:35:19;;;;;;;;;;;;;;;;;;5012777;28;1798;-75
2022/11/20 11:37:46;;;;;;;;;;;;;;;;;;5029341;28;1500;-77
2022/11/20 11:40:14;;;;;;;;;;;;;;;;;;5015545;28;1082;-77
2022/11/20 11:42:42;;;;;;;;;;;;;;;;;;5008359;28;1211;-78
2022/11/20 11:45:11;;;;;;;;;;;;;;;;;;5012467;28;1122;-77
2022/11/20 11:47:39;;;;;;;;;;;;;;;;;;5042165;28;1972;-78
2022/11/20 11:50:23;;;;;;;;;;;;;;;;;;5002338;28;1220;-76
2022/11/20 11:52:55;;;;;;;;;;;;;;;;;;4997616;28;1703;-76
2022/11/20 11:55:24;;;;;;;;;;;;;;;;;;4996230;28;1023;-77
2022/11/20 11:57:53;;;;;;;;;;;;;;;;;;5000920;28;1365;-77
2022/11/20 12:00:23;;;;;;;;;;;;;;;;;;5003030;28;1168;-78
2022/11/20 12:02:53;;;;;;;;;;;;;;;;;;5029766;28;968;-77
2022/11/20 12:05:20;;;;;;;;;;;;;;;;;;5065203;28;1567;-78
2022/11/20 12:07:48;;;;;;;;;;;;;;;;;;5021984;28;1953;-76
2022/11/20 12:10:20;;;;;;;;;;;;;;;;;;5017666;28;984;-77
2022/11/20 12:12:48;;;;;;;;;;;;;;;;;;5011516;28;1353;-75
2022/11/20 12:15:26;;;;;;;;;;;;;;;;;;5007803;28;1070;-75
2022/11/20 12:17:52;;;;;;;;;;;;;;;;;;4991863;28;1439;-77
2022/11/20 12:20:19;;;;;;;;;;;;;;;;;;4994234;28;1389;-76
2022/11/20 12:22:50;;;;;;;;;;;;;;;;;;4992531;28;1849;-77
2022/11/20 12:25:17;;;;;;;;;;;;;;;;;;5008333;28;1486;-78
2022/11/20 12:27:51;;;;;;;;;;;;;;;;;;5013646;28;1934;-78
2022/11/20 12:30:18;;;;;;;;;;;;;;;;;;5001260;28;1034;-77
2022/11/20 12:33:04;;;;;;;;;;;;;;;;;;4998518;28;1526;-77
2022/11/20 12:35:35;;;;;;;;;;;;;;;;;;4997018;28;1437;-77
2022/11/20 12:38:06;;;;;;;;;;;;;;;;;;5006778;28;1455;-77
2022/11/20 12:40:34;;;;;;;;;;;;;;;;;;4988895;28;995;-77
2022/11/20 12:45:59;;;;;;;;;;;;;;;;;;5001100;28;1093;-77
2022/11/20 12:48:32;;;;;;;;;;;;;;;;;;5050113;28;1377;-77
2022/11/20 12:51:05;;;;;;;;;;;;;;;;;;5024204;28;1285;-76
2022/11/20 12:53:34;;;;;;;;;;;;;;;;;;4988408;28;1653;-76
2022/11/20 12:56:03;;;;;;;;;;;;;;;;;;5000854;28;1986;-78
2022/11/20 12:58:33;;;;;;;;;;;;;;;;;;5009126;28;1406;-77
2022/11/20 13:01:00;;;;;;;;;;;;;;;;;;5008292;28;1101;-78
2022/11/20 13:03:40;;;;;;;;;;;;;;;;;;5030732;28;936;-77
2022/11/20 13:06:11;;;;;;;;;;;;;;;;;;4998658;28;1930;-76
2022/11/20 13:08:39;;;;;;;;;;;;;;;;;;5014758;28;1478;-77
2022/11/20 13:11:08;;;;;;;;;;;;;;;;;;5010540;28;1073;-77
2022/11/20 13:13:41;;;;;;;;;;;;;;;;;;4991203;28;1210;-76
2022/11/20 13:16:07;;;;;;;;;;;;;;;;;;5033619;28;1382;-75
2022/11/20 13:18:35;;;;;;;;;;;;;;;;;;5065312;28;1652;-77
2022/11/20 13:21:02;;;;;;;;;;;;;;;;;;5066488;28;1170;-76
2022/11/20 13:23:28;;;;;;;;;;;;;;;;;;5069844;28;1167;-77
2022/11/20 13:26:04;;;;;;;;;;;;;;;;;;5078553;28;1230;-77
2022/11/20 13:28:30;;;;;;;;;;;;;;;;;;5079040;28;2049;-77
2022/11/20 13:30:58;;;;;;;;;;;;;;;;;;5075672;28;1676;-77
2022/11/20 13:33:26;;;;;;;;;;;;;;;;;;5068334;28;1237;-77
2022/11/20 13:35:56;;;;;;;;;;;;;;;;;;5076627;28;1146;-77
2022/11/20 13:38:22;;;;;;;;;;;;;;;;;;5070079;28;1393;-77
2022/11/20 13:40:51;;;;;;;;;;;;;;;;;;5073688;28;1166;-76
2022/11/20 13:43:23;;;;;;;;;;;;;;;;;;5075906;28;1257;-74
2022/11/20 13:45:57;;;;;;;;;;;;;;;;;;5074404;28;1278;-75
2022/11/20 13:48:25;;;;;;;;;;;;;;;;;;5071308;28;1914;-77
2022/11/20 13:50:55;;;;;;;;;;;;;;;;;;5077316;28;1320;-78
2022/11/20 13:53:26;;;;;;;;;;;;;;;;;;5084412;28;1285;-77
2022/11/20 13:55:54;;;;;;;;;;;;;;;;;;5083176;28;1430;-74
2022/11/20 13:58:24;;;;;;;;;;;;;;;;;;5081011;28;1399;-74
2022/11/20 14:00:51;;;;;;;;;;;;;;;;;;5076391;28;1260;-76
2022/11/20 14:03:18;;;;;;;;;;;;;;;;;;5081737;28;1349;-74
2022/11/20 14:05:50;;;;;;;;;;;;;;;;;;5082164;28;1121;-75
2022/11/20 14:08:18;;;;;;;;;;;;;;;;;;5083495;28;1930;-75
2022/11/20 14:10:44;;;;;;;;;;;;;;;;;;5078517;28;1217;-77
2022/11/20 14:13:11;;;;;;;;;;;;;;;;;;5080255;28;1190;-77
2022/11/20 14:15:40;;;;;;;;;;;;;;;;;;5086747;28;1410;-75
2022/11/20 14:18:12;;;;;;;;;;;;;;;;;;5091358;28;1258;-77
2022/11/20 14:20:38;;;;;;;;;;;;;;;;;;5092018;28;1102;-76
2022/11/20 14:23:05;;;;;;;;;;;;;;;;;;5089752;28;1279;-76
2022/11/20 14:25:31;;;;;;;;;;;;;;;;;;5090139;28;1237;-76
2022/11/20 14:27:58;;;;;;;;;;;;;;;;;;5074759;28;1963;-78
2022/11/20 14:30:25;;;;;;;;;;;;;;;;;;5072318;28;1146;-77
2022/11/20 14:32:52;;;;;;;;;;;;;;;;;;5072681;28;1154;-78
2022/11/20 14:35:19;;;;;;;;;;;;;;;;;;5078893;28;1312;-77
2022/11/20 14:37:45;;;;;;;;;;;;;;;;;;5074843;28;1451;-77
2022/11/20 14:40:30;;;;;;;;;;;;;;;;;;5087833;28;1098;-76
2022/11/20 14:42:58;;;;;;;;;;;;;;;;;;5087765;28;1079;-77
2022/11/20 14:45:24;;;;;;;;;;;;;;;;;;5091993;28;778;-77
2022/11/20 14:47:51;;;;;;;;;;;;;;;;;;5089617;28;1975;-77
2022/11/20 14:50:18;;;;;;;;;;;;;;;;;;5091860;28;984;-77
2022/11/20 14:52:50;;;;;;;;;;;;;;;;;;5090614;28;969;-76
2022/11/20 14:55:25;;;;;;;;;;;;;;;;;;5077568;28;1381;-78
2022/11/20 14:57:55;;;;;;;;;;;;;;;;;;5085476;28;1730;-76
2022/11/20 15:00:23;;;;;;;;;;;;;;;;;;5089276;28;1085;-77
2022/11/20 15:02:49;;;;;;;;;;;;;;;;;;5073169;28;1650;-77
2022/11/20 15:05:16;;;;;;;;;;;;;;;;;;5068168;28;1200;-76
2022/11/20 15:07:45;;;;;;;;;;;;;;;;;;5046915;28;1919;-76
2022/11/20 15:10:13;;;;;;;;;;;;;;;;;;5001145;28;988;-76
2022/11/20 15:12:47;;;;;;;;;;;;;;;;;;5001698;28;1114;-78
2022/11/20 15:15:14;;;;;;;;;;;;;;;;;;5002203;28;1501;-78
2022/11/20 15:17:44;;;;;;;;;;;;;;;;;;4989732;28;1400;-78
2022/11/20 15:20:11;;;;;;;;;;;;;;;;;;5020481;28;1504;-78
2022/11/20 15:22:38;;;;;;;;;;;;;;;;;;5003800;28;1005;-77
2022/11/20 15:25:06;;;;;;;;;;;;;;;;;;5015478;28;1386;-75
2022/11/20 15:27:32;;;;;;;;;;;;;;;;;;5047604;28;1931;-77
2022/11/20 15:29:58;;;;;;;;;;;;;;;;;;5073135;28;1298;-78
2022/11/20 15:32:25;;;;;;;;;;;;;;;;;;5065772;28;1348;-76
2022/11/20 15:34:52;;;;;;;;;;;;;;;;;;5070699;28;1192;-77
2022/11/20 15:37:18;;;;;;;;;;;;;;;;;;5070768;28;1512;-77
2022/11/20 15:39:45;;;;;;;;;;;;;;;;;;5072107;28;1117;-77
2022/11/20 15:42:11;;;;;;;;;;;;;;;;;;5070441;28;1414;-78
2022/11/20 15:44:37;;;;;;;;;;;;;;;;;;5071967;28;1105;-78
2022/11/20 15:47:04;;;;;;;;;;;;;;;;;;5061539;28;1910;-78
2022/11/20 15:49:30;;;;;;;;;;;;;;;;;;5071841;28;1114;-78
2022/11/20 15:51:57;;;;;;;;;;;;;;;;;;5070908;28;1419;-77
2022/11/20 15:54:24;;;;;;;;;;;;;;;;;;5071455;28;1478;-79
2022/11/20 15:56:52;;;;;;;;;;;;;;;;;;5072119;28;1328;-77
2022/11/20 15:59:18;;;;;;;;;;;;;;;;;;5071407;28;862;-78
2022/11/20 16:01:44;;;;;;;;;;;;;;;;;;5071118;28;1343;-78
2022/11/20 16:04:11;;;;;;;;;;;;;;;;;;5060778;28;1421;-77
2022/11/20 16:06:38;;;;;;;;;;;;;;;;;;5074460;28;1372;-77
2022/11/20 16:09:05;;;;;;;;;;;;;;;;;;5071133;28;1918;-77
2022/11/20 16:11:31;;;;;;;;;;;;;;;;;;5071197;28;1347;-78
2022/11/20 16:16:43;;;;;;;;;;;;;;;;;;5071350;28;1165;-77
2022/11/20 16:19:10;;;;;;;;;;;;;;;;;;5071363;28;1381;-78
2022/11/20 16:21:37;;;;;;;;;;;;;;;;;;5070658;28;1452;-77
2022/11/20 16:24:04;;;;;;;;;;;;;;;;;;5069865;28;1377;-77
2022/11/20 16:26:32;;;;;;;;;;;;;;;;;;4997366;28;1524;-77
2022/11/20 16:28:59;;;;;;;;;;;;;;;;;;4989362;28;1992;-77
2022/11/20 16:31:26;;;;;;;;;;;;;;;;;;4996830;28;877;-77
2022/11/20 16:33:53;;;;;;;;;;;;;;;;;;5016987;28;881;-78
2022/11/20 16:36:19;;;;;;;;;;;;;;;;;;5072162;28;1436;-79
2022/11/20 16:38:45;;;;;;;;;;;;;;;;;;5066989;28;1325;-78
2022/11/20 16:41:14;;;;;;;;;;;;;;;;;;5074651;28;1518;-78
2022/11/20 16:43:45;;;;;;;;;;;;;;;;;;5075398;28;1141;-79
2022/11/20 16:46:11;;;;;;;;;;;;;;;;;;5072871;28;1346;-78
2022/11/20 16:48:37;;;;;;;;;;;;;;;;;;5076450;28;1918;-78
2022/11/20 16:51:03;;;;;;;;;;;;;;;;;;5078270;28;1401;-78
2022/11/20 16:53:30;;;;;;;;;;;;;;;;;;5090633;22;2106;-78
2022/11/20 16:55:56;;;;;;;;;;;;;;;;;;5074481;28;1362;-78
2022/11/20 16:58:22;;;;;;;;;;;;;;;;;;5074132;28;1196;-78
2022/11/20 17:00:49;;;;;;;;;;;;;;;;;;5072902;28;1310;-78
2022/11/20 17:03:16;;;;;;;;;;;;;;;;;;5059284;28;1406;-78
2022/11/20 17:05:43;;;;;;;;;;;;;;;;;;5015262;28;1114;-78
2022/11/20 17:08:09;;;;;;;;;;;;;;;;;;5002106;28;2005;-78
2022/11/20 17:10:36;;;;;;;;;;;;;;;;;;5006629;28;1698;-78
2022/11/20 17:13:02;;;;;;;;;;;;;;;;;;4992887;28;1352;-79
2022/11/20 17:15:29;;;;;;;;;;;;;;;;;;5001687;28;1008;-77
2022/11/20 17:17:57;;;;;;;;;;;;;;;;;;5006493;28;1008;-77
2022/11/20 17:20:23;;;;;;;;;;;;;;;;;;5005336;28;1347;-77
2022/11/20 17:22:50;;;;;;;;;;;;;;;;;;5006590;28;1483;-76
2022/11/20 17:25:16;;;;;;;;;;;;;;;;;;5040409;28;1337;-78
2022/11/20 17:27:43;;;;;;;;;;;;;;;;;;5067452;28;1910;-78